sensor_id;sensor_type;location;lat;lon;timestamp;temperature;humidity
67598;DHT22;62026;39.230;9.122;2022-09-09T00:01:08;29.00;64.40
67598;DHT22;62026;39.230;9.122;2022-09-09T00:06:14;29.00;64.40
67598;DHT22;62026;39.230;9.122;2022-09-09T00:09:31;29.00;64.30
67598;DHT22;62026;39.230;9.122;2022-09-09T00:14:26;28.90;64.40
67598;DHT22;62026;39.230;9.122;2022-09-09T00:17:20;28.90;64.30
67598;DHT22;62026;39.230;9.122;2022-09-09T00:19:52;28.90;64.40
67598;DHT22;62026;39.230;9.122;2022-09-09T00:22:27;28.90;64.40
67598;DHT22;62026;39.230;9.122;2022-09-09T00:25:10;28.90;64.30
67598;DHT22;62026;39.230;9.122;2022-09-09T00:27:46;28.90;64.30
67598;DHT22;62026;39.230;9.122;2022-09-09T00:30:20;28.80;64.30
67598;DHT22;62026;39.230;9.122;2022-09-09T00:33:33;28.80;64.30
67598;DHT22;62026;39.230;9.122;2022-09-09T00:35:47;28.80;64.30
67598;DHT22;62026;39.230;9.122;2022-09-09T00:38:18;28.80;64.40
67598;DHT22;62026;39.230;9.122;2022-09-09T00:40:50;28.80;64.40
67598;DHT22;62026;39.230;9.122;2022-09-09T00:43:40;28.80;64.40
67598;DHT22;62026;39.230;9.122;2022-09-09T00:49:07;28.70;64.40
67598;DHT22;62026;39.230;9.122;2022-09-09T00:54:54;28.70;64.50
67598;DHT22;62026;39.230;9.122;2022-09-09T01:02:56;28.70;64.10
67598;DHT22;62026;39.230;9.122;2022-09-09T01:11:02;28.60;63.90
67598;DHT22;62026;39.230;9.122;2022-09-09T01:13:31;28.60;63.80
67598;DHT22;62026;39.230;9.122;2022-09-09T01:16:04;28.60;63.80
67598;DHT22;62026;39.230;9.122;2022-09-09T01:18:36;28.60;63.70
67598;DHT22;62026;39.230;9.122;2022-09-09T01:24:24;28.60;63.70
67598;DHT22;62026;39.230;9.122;2022-09-09T01:27:12;28.60;63.50
67598;DHT22;62026;39.230;9.122;2022-09-09T01:29:40;28.50;63.30
67598;DHT22;62026;39.230;9.122;2022-09-09T01:35:15;28.50;63.30
67598;DHT22;62026;39.230;9.122;2022-09-09T01:38:04;28.50;63.20
67598;DHT22;62026;39.230;9.122;2022-09-09T01:40:31;28.50;63.20
67598;DHT22;62026;39.230;9.122;2022-09-09T01:42:57;28.40;63.10
67598;DHT22;62026;39.230;9.122;2022-09-09T01:45:23;28.40;63.20
67598;DHT22;62026;39.230;9.122;2022-09-09T01:47:50;28.40;63.10
67598;DHT22;62026;39.230;9.122;2022-09-09T01:50:40;28.40;63.10
67598;DHT22;62026;39.230;9.122;2022-09-09T01:53:06;28.40;63.10
67598;DHT22;62026;39.230;9.122;2022-09-09T01:55:38;28.30;63.20
67598;DHT22;62026;39.230;9.122;2022-09-09T02:00:52;28.30;63.30
67598;DHT22;62026;39.230;9.122;2022-09-09T02:03:29;28.30;63.40
67598;DHT22;62026;39.230;9.122;2022-09-09T02:08:58;28.30;63.40
67598;DHT22;62026;39.230;9.122;2022-09-09T02:11:27;28.20;63.50
67598;DHT22;62026;39.230;9.122;2022-09-09T02:14:13;28.20;63.60
67598;DHT22;62026;39.230;9.122;2022-09-09T02:16:54;28.20;63.60
67598;DHT22;62026;39.230;9.122;2022-09-09T02:19:58;28.20;63.80
67598;DHT22;62026;39.230;9.122;2022-09-09T02:22:55;28.20;63.90
67598;DHT22;62026;39.230;9.122;2022-09-09T02:25:24;28.20;64.00
67598;DHT22;62026;39.230;9.122;2022-09-09T02:27:57;28.20;64.00
67598;DHT22;62026;39.230;9.122;2022-09-09T02:30:24;28.20;64.10
67598;DHT22;62026;39.230;9.122;2022-09-09T02:32:56;28.20;64.10
67598;DHT22;62026;39.230;9.122;2022-09-09T02:35:35;28.20;64.20
67598;DHT22;62026;39.230;9.122;2022-09-09T02:38:04;28.20;64.30
67598;DHT22;62026;39.230;9.122;2022-09-09T02:40:33;28.20;64.30
67598;DHT22;62026;39.230;9.122;2022-09-09T02:43:02;28.20;64.20
67598;DHT22;62026;39.230;9.122;2022-09-09T02:45:32;28.20;64.20
67598;DHT22;62026;39.230;9.122;2022-09-09T02:51:04;28.10;64.30
67598;DHT22;62026;39.230;9.122;2022-09-09T02:53:44;28.10;64.40
67598;DHT22;62026;39.230;9.122;2022-09-09T02:56:16;28.20;64.60
67598;DHT22;62026;39.230;9.122;2022-09-09T02:58:47;28.10;64.70
67598;DHT22;62026;39.230;9.122;2022-09-09T03:01:15;28.10;64.90
67598;DHT22;62026;39.230;9.122;2022-09-09T03:03:41;28.10;65.00
67598;DHT22;62026;39.230;9.122;2022-09-09T03:06:11;28.10;65.20
67598;DHT22;62026;39.230;9.122;2022-09-09T03:08:39;28.10;65.30
67598;DHT22;62026;39.230;9.122;2022-09-09T03:11:05;28.10;65.30
67598;DHT22;62026;39.230;9.122;2022-09-09T03:13:34;28.10;65.30
67598;DHT22;62026;39.230;9.122;2022-09-09T03:16:00;28.10;65.30
67598;DHT22;62026;39.230;9.122;2022-09-09T03:18:28;28.10;65.20
67598;DHT22;62026;39.230;9.122;2022-09-09T03:20:54;28.10;65.10
67598;DHT22;62026;39.230;9.122;2022-09-09T03:23:20;28.10;64.80
67598;DHT22;62026;39.230;9.122;2022-09-09T03:25:48;28.10;64.80
67598;DHT22;62026;39.230;9.122;2022-09-09T03:28:18;28.00;64.60
67598;DHT22;62026;39.230;9.122;2022-09-09T03:30:46;28.00;64.50
67598;DHT22;62026;39.230;9.122;2022-09-09T03:33:12;28.00;64.20
67598;DHT22;62026;39.230;9.122;2022-09-09T03:35:44;28.00;64.20
67598;DHT22;62026;39.230;9.122;2022-09-09T03:38:13;28.00;64.10
67598;DHT22;62026;39.230;9.122;2022-09-09T03:40:39;28.00;64.10
67598;DHT22;62026;39.230;9.122;2022-09-09T03:43:05;27.90;64.00
67598;DHT22;62026;39.230;9.122;2022-09-09T03:45:33;27.90;63.90
67598;DHT22;62026;39.230;9.122;2022-09-09T03:47:59;27.90;64.00
67598;DHT22;62026;39.230;9.122;2022-09-09T03:50:25;27.90;63.90
67598;DHT22;62026;39.230;9.122;2022-09-09T03:52:51;27.90;63.90
67598;DHT22;62026;39.230;9.122;2022-09-09T03:55:21;27.90;63.90
67598;DHT22;62026;39.230;9.122;2022-09-09T03:57:47;27.90;64.00
67598;DHT22;62026;39.230;9.122;2022-09-09T04:00:14;27.90;64.10
67598;DHT22;62026;39.230;9.122;2022-09-09T04:02:43;27.80;63.90
67598;DHT22;62026;39.230;9.122;2022-09-09T04:05:12;27.80;64.00
67598;DHT22;62026;39.230;9.122;2022-09-09T04:07:42;27.80;64.10
67598;DHT22;62026;39.230;9.122;2022-09-09T04:10:08;27.80;64.10
67598;DHT22;62026;39.230;9.122;2022-09-09T04:12:37;27.80;64.20
67598;DHT22;62026;39.230;9.122;2022-09-09T04:15:03;27.80;64.20
67598;DHT22;62026;39.230;9.122;2022-09-09T04:17:29;27.80;64.10
67598;DHT22;62026;39.230;9.122;2022-09-09T04:19:56;27.80;64.10
67598;DHT22;62026;39.230;9.122;2022-09-09T04:22:23;27.80;64.10
67598;DHT22;62026;39.230;9.122;2022-09-09T04:24:49;27.70;64.20
67598;DHT22;62026;39.230;9.122;2022-09-09T04:27:17;27.70;64.10
67598;DHT22;62026;39.230;9.122;2022-09-09T04:29:46;27.70;64.30
67598;DHT22;62026;39.230;9.122;2022-09-09T04:32:12;27.70;64.30
67598;DHT22;62026;39.230;9.122;2022-09-09T04:34:39;27.70;64.40
67598;DHT22;62026;39.230;9.122;2022-09-09T04:37:08;27.70;64.30
67598;DHT22;62026;39.230;9.122;2022-09-09T04:39:34;27.70;64.30
67598;DHT22;62026;39.230;9.122;2022-09-09T04:42:00;27.70;64.40
67598;DHT22;62026;39.230;9.122;2022-09-09T04:44:27;27.60;64.40
67598;DHT22;62026;39.230;9.122;2022-09-09T04:46:53;27.70;64.50
67598;DHT22;62026;39.230;9.122;2022-09-09T04:49:20;27.60;64.50
67598;DHT22;62026;39.230;9.122;2022-09-09T04:51:48;27.60;64.30
67598;DHT22;62026;39.230;9.122;2022-09-09T04:54:16;27.70;64.30
67598;DHT22;62026;39.230;9.122;2022-09-09T04:56:44;27.60;64.30
67598;DHT22;62026;39.230;9.122;2022-09-09T04:59:11;27.70;64.20
67598;DHT22;62026;39.230;9.122;2022-09-09T05:01:43;27.60;64.20
67598;DHT22;62026;39.230;9.122;2022-09-09T05:04:10;27.70;64.20
67598;DHT22;62026;39.230;9.122;2022-09-09T05:06:36;27.60;64.20
67598;DHT22;62026;39.230;9.122;2022-09-09T05:09:03;27.60;64.20
67598;DHT22;62026;39.230;9.122;2022-09-09T05:11:30;27.60;64.10
67598;DHT22;62026;39.230;9.122;2022-09-09T05:14:20;27.60;64.10
67598;DHT22;62026;39.230;9.122;2022-09-09T05:16:47;27.60;64.10
67598;DHT22;62026;39.230;9.122;2022-09-09T05:19:15;27.70;64.10
67598;DHT22;62026;39.230;9.122;2022-09-09T05:21:47;27.70;64.00
67598;DHT22;62026;39.230;9.122;2022-09-09T05:24:16;27.70;64.00
67598;DHT22;62026;39.230;9.122;2022-09-09T05:26:43;27.70;64.00
67598;DHT22;62026;39.230;9.122;2022-09-09T05:29:10;27.70;64.00
67598;DHT22;62026;39.230;9.122;2022-09-09T05:31:36;27.60;63.90
67598;DHT22;62026;39.230;9.122;2022-09-09T05:34:08;27.70;64.00
67598;DHT22;62026;39.230;9.122;2022-09-09T05:36:34;27.70;64.10
67598;DHT22;62026;39.230;9.122;2022-09-09T05:39:00;27.70;64.00
67598;DHT22;62026;39.230;9.122;2022-09-09T05:41:27;27.70;64.00
67598;DHT22;62026;39.230;9.122;2022-09-09T05:43:56;27.60;64.00
67598;DHT22;62026;39.230;9.122;2022-09-09T05:46:24;27.60;64.00
67598;DHT22;62026;39.230;9.122;2022-09-09T05:48:52;27.60;64.10
67598;DHT22;62026;39.230;9.122;2022-09-09T05:51:24;27.60;64.10
67598;DHT22;62026;39.230;9.122;2022-09-09T05:53:56;27.70;64.10
67598;DHT22;62026;39.230;9.122;2022-09-09T05:56:29;27.70;64.10
67598;DHT22;62026;39.230;9.122;2022-09-09T05:58:57;27.70;64.00
67598;DHT22;62026;39.230;9.122;2022-09-09T06:01:26;27.70;63.90
67598;DHT22;62026;39.230;9.122;2022-09-09T06:04:00;27.70;63.80
67598;DHT22;62026;39.230;9.122;2022-09-09T06:06:32;27.80;63.60
67598;DHT22;62026;39.230;9.122;2022-09-09T06:09:05;27.80;63.50
67598;DHT22;62026;39.230;9.122;2022-09-09T06:11:35;27.80;63.50
67598;DHT22;62026;39.230;9.122;2022-09-09T06:14:03;27.90;63.40
67598;DHT22;62026;39.230;9.122;2022-09-09T06:16:31;27.90;63.40
67598;DHT22;62026;39.230;9.122;2022-09-09T06:19:04;27.90;63.20
67598;DHT22;62026;39.230;9.122;2022-09-09T06:21:32;28.00;63.00
67598;DHT22;62026;39.230;9.122;2022-09-09T06:24:01;28.00;63.00
67598;DHT22;62026;39.230;9.122;2022-09-09T06:26:32;28.00;62.90
67598;DHT22;62026;39.230;9.122;2022-09-09T06:29:01;28.10;62.70
67598;DHT22;62026;39.230;9.122;2022-09-09T06:31:30;28.10;62.70
67598;DHT22;62026;39.230;9.122;2022-09-09T06:34:07;28.20;62.50
67598;DHT22;62026;39.230;9.122;2022-09-09T06:36:36;28.30;62.30
67598;DHT22;62026;39.230;9.122;2022-09-09T06:39:04;28.40;62.00
67598;DHT22;62026;39.230;9.122;2022-09-09T06:41:32;28.50;62.00
67598;DHT22;62026;39.230;9.122;2022-09-09T06:44:00;28.60;61.70
67598;DHT22;62026;39.230;9.122;2022-09-09T06:46:37;28.60;61.70
67598;DHT22;62026;39.230;9.122;2022-09-09T06:49:04;28.60;61.70
67598;DHT22;62026;39.230;9.122;2022-09-09T06:51:30;28.70;61.40
67598;DHT22;62026;39.230;9.122;2022-09-09T06:53:59;28.70;61.40
67598;DHT22;62026;39.230;9.122;2022-09-09T06:56:38;28.70;61.50
67598;DHT22;62026;39.230;9.122;2022-09-09T06:59:12;28.70;61.50
67598;DHT22;62026;39.230;9.122;2022-09-09T07:01:40;28.80;61.60
67598;DHT22;62026;39.230;9.122;2022-09-09T07:04:12;28.80;61.10
67598;DHT22;62026;39.230;9.122;2022-09-09T07:06:42;28.80;61.20
67598;DHT22;62026;39.230;9.122;2022-09-09T07:09:23;28.90;61.20
67598;DHT22;62026;39.230;9.122;2022-09-09T07:11:51;28.90;60.90
67598;DHT22;62026;39.230;9.122;2022-09-09T07:14:19;29.00;60.80
67598;DHT22;62026;39.230;9.122;2022-09-09T07:16:50;29.00;60.50
67598;DHT22;62026;39.230;9.122;2022-09-09T07:19:17;29.10;59.70
67598;DHT22;62026;39.230;9.122;2022-09-09T07:21:45;29.10;59.00
67598;DHT22;62026;39.230;9.122;2022-09-09T07:24:14;29.10;58.90
67598;DHT22;62026;39.230;9.122;2022-09-09T07:26:42;29.10;59.00
67598;DHT22;62026;39.230;9.122;2022-09-09T07:29:10;29.20;58.50
67598;DHT22;62026;39.230;9.122;2022-09-09T07:31:39;29.20;58.50
67598;DHT22;62026;39.230;9.122;2022-09-09T07:34:10;29.20;58.40
67598;DHT22;62026;39.230;9.122;2022-09-09T07:36:38;29.30;58.30
67598;DHT22;62026;39.230;9.122;2022-09-09T07:39:08;29.30;58.30
67598;DHT22;62026;39.230;9.122;2022-09-09T07:41:37;29.50;58.10
67598;DHT22;62026;39.230;9.122;2022-09-09T07:44:13;29.60;57.90
67598;DHT22;62026;39.230;9.122;2022-09-09T07:46:42;29.60;57.70
67598;DHT22;62026;39.230;9.122;2022-09-09T07:49:11;29.60;57.50
67598;DHT22;62026;39.230;9.122;2022-09-09T07:51:38;29.60;57.50
67598;DHT22;62026;39.230;9.122;2022-09-09T07:54:11;29.70;57.30
67598;DHT22;62026;39.230;9.122;2022-09-09T07:56:42;29.80;57.10
67598;DHT22;62026;39.230;9.122;2022-09-09T07:59:10;29.80;57.00
67598;DHT22;62026;39.230;9.122;2022-09-09T08:01:41;29.90;56.80
67598;DHT22;62026;39.230;9.122;2022-09-09T08:04:11;30.00;56.80
67598;DHT22;62026;39.230;9.122;2022-09-09T08:06:44;30.00;56.60
67598;DHT22;62026;39.230;9.122;2022-09-09T08:09:13;30.10;56.20
67598;DHT22;62026;39.230;9.122;2022-09-09T08:11:41;30.10;55.70
67598;DHT22;62026;39.230;9.122;2022-09-09T08:14:08;30.10;55.30
67598;DHT22;62026;39.230;9.122;2022-09-09T08:16:38;30.10;55.20
67598;DHT22;62026;39.230;9.122;2022-09-09T08:19:06;30.10;55.00
67598;DHT22;62026;39.230;9.122;2022-09-09T08:21:33;30.30;54.10
67598;DHT22;62026;39.230;9.122;2022-09-09T08:24:02;30.30;53.90
67598;DHT22;62026;39.230;9.122;2022-09-09T08:26:32;30.20;53.70
67598;DHT22;62026;39.230;9.122;2022-09-09T08:29:01;30.20;53.60
67598;DHT22;62026;39.230;9.122;2022-09-09T08:31:32;30.40;53.30
67598;DHT22;62026;39.230;9.122;2022-09-09T08:34:00;30.50;53.20
67598;DHT22;62026;39.230;9.122;2022-09-09T08:36:30;30.40;53.70
67598;DHT22;62026;39.230;9.122;2022-09-09T08:38:59;30.50;53.40
67598;DHT22;62026;39.230;9.122;2022-09-09T08:44:10;31.00;51.60
67598;DHT22;62026;39.230;9.122;2022-09-09T08:52:23;31.30;50.90
67598;DHT22;62026;39.230;9.122;2022-09-09T08:54:58;31.50;49.90
67598;DHT22;62026;39.230;9.122;2022-09-09T08:57:44;31.30;50.00
67598;DHT22;62026;39.230;9.122;2022-09-09T09:00:11;31.20;49.60
67598;DHT22;62026;39.230;9.122;2022-09-09T09:02:41;31.10;49.80
67598;DHT22;62026;39.230;9.122;2022-09-09T09:13:43;31.10;49.20
67598;DHT22;62026;39.230;9.122;2022-09-09T09:19:00;31.20;48.30
67598;DHT22;62026;39.230;9.122;2022-09-09T09:24:14;31.80;48.30
67598;DHT22;62026;39.230;9.122;2022-09-09T09:27:43;31.80;47.50
67598;DHT22;62026;39.230;9.122;2022-09-09T09:30:21;31.80;47.10
67598;DHT22;62026;39.230;9.122;2022-09-09T09:33:00;32.00;45.90
67598;DHT22;62026;39.230;9.122;2022-09-09T09:35:38;31.80;45.80
67598;DHT22;62026;39.230;9.122;2022-09-09T09:38:18;31.70;45.50
67598;DHT22;62026;39.230;9.122;2022-09-09T09:40:49;31.80;45.40
67598;DHT22;62026;39.230;9.122;2022-09-09T09:43:25;31.90;45.10
67598;DHT22;62026;39.230;9.122;2022-09-09T09:45:54;31.80;45.40
67598;DHT22;62026;39.230;9.122;2022-09-09T09:48:23;31.90;45.40
67598;DHT22;62026;39.230;9.122;2022-09-09T09:55:58;32.30;44.60
67598;DHT22;62026;39.230;9.122;2022-09-09T09:58:27;32.70;44.60
67598;DHT22;62026;39.230;9.122;2022-09-09T10:00:57;33.00;44.20
67598;DHT22;62026;39.230;9.122;2022-09-09T10:03:28;33.00;44.30
67598;DHT22;62026;39.230;9.122;2022-09-09T10:05:57;32.70;44.30
67598;DHT22;62026;39.230;9.122;2022-09-09T10:08:27;32.80;44.40
67598;DHT22;62026;39.230;9.122;2022-09-09T10:19:49;33.00;44.20
67598;DHT22;62026;39.230;9.122;2022-09-09T10:22:26;32.90;44.20
67598;DHT22;62026;39.230;9.122;2022-09-09T10:25:14;33.10;43.00
67598;DHT22;62026;39.230;9.122;2022-09-09T10:28:10;32.90;43.30
67598;DHT22;62026;39.230;9.122;2022-09-09T10:32:02;33.00;43.40
67598;DHT22;62026;39.230;9.122;2022-09-09T10:36:38;33.10;43.30
67598;DHT22;62026;39.230;9.122;2022-09-09T10:39:17;33.00;42.70
67598;DHT22;62026;39.230;9.122;2022-09-09T10:42:07;32.80;43.00
67598;DHT22;62026;39.230;9.122;2022-09-09T10:44:54;32.90;42.80
67598;DHT22;62026;39.230;9.122;2022-09-09T10:55:59;32.50;42.60
67598;DHT22;62026;39.230;9.122;2022-09-09T10:59:14;32.50;42.60
67598;DHT22;62026;39.230;9.122;2022-09-09T11:01:40;32.50;42.00
67598;DHT22;62026;39.230;9.122;2022-09-09T11:04:12;32.60;42.00
67598;DHT22;62026;39.230;9.122;2022-09-09T11:06:50;32.40;42.10
67598;DHT22;62026;39.230;9.122;2022-09-09T11:09:21;32.40;42.20
67598;DHT22;62026;39.230;9.122;2022-09-09T11:11:52;32.40;41.50
67598;DHT22;62026;39.230;9.122;2022-09-09T11:21:55;32.60;41.30
67598;DHT22;62026;39.230;9.122;2022-09-09T11:27:11;32.40;40.20
67598;DHT22;62026;39.230;9.122;2022-09-09T11:32:23;32.40;39.90
67598;DHT22;62026;39.230;9.122;2022-09-09T11:37:56;32.20;39.10
67598;DHT22;62026;39.230;9.122;2022-09-09T11:40:28;32.10;39.50
67598;DHT22;62026;39.230;9.122;2022-09-09T11:43:13;32.10;39.30
67598;DHT22;62026;39.230;9.122;2022-09-09T11:45:43;32.20;39.50
67598;DHT22;62026;39.230;9.122;2022-09-09T11:48:24;32.20;39.10
67598;DHT22;62026;39.230;9.122;2022-09-09T11:51:36;32.10;39.20
67598;DHT22;62026;39.230;9.122;2022-09-09T11:53:49;32.00;37.60
67598;DHT22;62026;39.230;9.122;2022-09-09T12:01:26;32.30;36.60
67598;DHT22;62026;39.230;9.122;2022-09-09T12:04:28;32.50;36.70
67598;DHT22;62026;39.230;9.122;2022-09-09T12:06:59;32.50;36.40
67598;DHT22;62026;39.230;9.122;2022-09-09T12:09:50;32.70;36.20
67598;DHT22;62026;39.230;9.122;2022-09-09T12:12:21;32.60;37.40
67598;DHT22;62026;39.230;9.122;2022-09-09T12:17:46;32.70;37.20
67598;DHT22;62026;39.230;9.122;2022-09-09T12:25:53;32.60;37.50
67598;DHT22;62026;39.230;9.122;2022-09-09T12:31:25;32.80;37.80
67598;DHT22;62026;39.230;9.122;2022-09-09T12:34:06;32.60;44.90
67598;DHT22;62026;39.230;9.122;2022-09-09T12:36:37;32.30;46.60
67598;DHT22;62026;39.230;9.122;2022-09-09T12:39:49;32.30;47.50
67598;DHT22;62026;39.230;9.122;2022-09-09T12:42:18;32.30;48.30
67598;DHT22;62026;39.230;9.122;2022-09-09T12:44:52;32.20;49.30
67598;DHT22;62026;39.230;9.122;2022-09-09T12:47:20;32.20;48.90
67598;DHT22;62026;39.230;9.122;2022-09-09T12:49:51;32.20;49.40
67598;DHT22;62026;39.230;9.122;2022-09-09T12:52:27;32.00;51.00
67598;DHT22;62026;39.230;9.122;2022-09-09T12:54:58;31.90;51.60
67598;DHT22;62026;39.230;9.122;2022-09-09T12:57:29;32.00;50.80
67598;DHT22;62026;39.230;9.122;2022-09-09T13:00:12;32.10;50.40
67598;DHT22;62026;39.230;9.122;2022-09-09T13:02:51;32.10;49.20
67598;DHT22;62026;39.230;9.122;2022-09-09T13:05:23;32.10;48.40
67598;DHT22;62026;39.230;9.122;2022-09-09T13:07:51;32.20;47.60
67598;DHT22;62026;39.230;9.122;2022-09-09T13:10:26;32.30;47.50
67598;DHT22;62026;39.230;9.122;2022-09-09T13:12:57;32.30;47.10
67598;DHT22;62026;39.230;9.122;2022-09-09T13:15:24;32.30;46.60
67598;DHT22;62026;39.230;9.122;2022-09-09T13:17:54;32.30;45.20
67598;DHT22;62026;39.230;9.122;2022-09-09T13:20:26;32.40;45.80
67598;DHT22;62026;39.230;9.122;2022-09-09T13:22:53;32.30;47.00
67598;DHT22;62026;39.230;9.122;2022-09-09T13:25:27;32.30;47.30
67598;DHT22;62026;39.230;9.122;2022-09-09T13:27:58;32.20;45.50
67598;DHT22;62026;39.230;9.122;2022-09-09T13:36:26;32.30;45.30
67598;DHT22;62026;39.230;9.122;2022-09-09T13:38:31;32.40;44.90
67598;DHT22;62026;39.230;9.122;2022-09-09T13:41:09;32.40;44.80
67598;DHT22;62026;39.230;9.122;2022-09-09T13:43:37;32.40;44.80
67598;DHT22;62026;39.230;9.122;2022-09-09T13:51:38;32.10;46.90
67598;DHT22;62026;39.230;9.122;2022-09-09T13:54:06;32.10;46.80
67598;DHT22;62026;39.230;9.122;2022-09-09T13:56:35;32.10;46.70
67598;DHT22;62026;39.230;9.122;2022-09-09T13:59:03;32.10;46.50
67598;DHT22;62026;39.230;9.122;2022-09-09T14:01:30;32.10;45.60
67598;DHT22;62026;39.230;9.122;2022-09-09T14:03:56;32.00;45.90
67598;DHT22;62026;39.230;9.122;2022-09-09T14:06:23;32.10;45.60
67598;DHT22;62026;39.230;9.122;2022-09-09T14:08:49;32.20;43.90
67598;DHT22;62026;39.230;9.122;2022-09-09T14:11:16;32.30;43.50
67598;DHT22;62026;39.230;9.122;2022-09-09T14:13:43;32.20;42.60
67598;DHT22;62026;39.230;9.122;2022-09-09T14:16:09;32.30;44.30
67598;DHT22;62026;39.230;9.122;2022-09-09T14:18:36;32.20;45.40
67598;DHT22;62026;39.230;9.122;2022-09-09T14:21:03;32.20;45.20
67598;DHT22;62026;39.230;9.122;2022-09-09T14:23:29;32.20;44.10
67598;DHT22;62026;39.230;9.122;2022-09-09T14:25:55;32.20;39.40
67598;DHT22;62026;39.230;9.122;2022-09-09T14:28:21;32.10;37.30
67598;DHT22;62026;39.230;9.122;2022-09-09T14:30:47;32.20;37.20
67598;DHT22;62026;39.230;9.122;2022-09-09T14:33:14;32.10;41.50
67598;DHT22;62026;39.230;9.122;2022-09-09T14:35:41;31.90;48.10
67598;DHT22;62026;39.230;9.122;2022-09-09T14:38:08;31.90;49.20
67598;DHT22;62026;39.230;9.122;2022-09-09T14:40:35;31.90;50.30
67598;DHT22;62026;39.230;9.122;2022-09-09T14:43:02;31.90;50.20
67598;DHT22;62026;39.230;9.122;2022-09-09T14:45:29;31.80;49.10
67598;DHT22;62026;39.230;9.122;2022-09-09T14:47:55;31.90;47.50
67598;DHT22;62026;39.230;9.122;2022-09-09T14:50:22;31.80;48.00
67598;DHT22;62026;39.230;9.122;2022-09-09T14:52:48;31.80;48.70
67598;DHT22;62026;39.230;9.122;2022-09-09T14:55:15;31.80;47.70
67598;DHT22;62026;39.230;9.122;2022-09-09T14:57:42;31.80;49.00
67598;DHT22;62026;39.230;9.122;2022-09-09T15:00:09;31.80;52.80
67598;DHT22;62026;39.230;9.122;2022-09-09T15:02:36;31.70;53.60
67598;DHT22;62026;39.230;9.122;2022-09-09T15:05:03;31.60;53.70
67598;DHT22;62026;39.230;9.122;2022-09-09T15:07:30;31.70;52.00
67598;DHT22;62026;39.230;9.122;2022-09-09T15:09:57;31.70;52.10
67598;DHT22;62026;39.230;9.122;2022-09-09T15:12:23;31.70;54.60
67598;DHT22;62026;39.230;9.122;2022-09-09T15:14:50;31.70;55.40
67598;DHT22;62026;39.230;9.122;2022-09-09T15:17:16;31.60;55.90
67598;DHT22;62026;39.230;9.122;2022-09-09T15:19:42;31.60;57.60
67598;DHT22;62026;39.230;9.122;2022-09-09T15:22:08;31.50;58.50
67598;DHT22;62026;39.230;9.122;2022-09-09T15:24:34;31.40;58.80
67598;DHT22;62026;39.230;9.122;2022-09-09T15:27:01;31.30;58.90
67598;DHT22;62026;39.230;9.122;2022-09-09T15:29:27;31.30;58.80
67598;DHT22;62026;39.230;9.122;2022-09-09T15:31:54;31.20;60.20
67598;DHT22;62026;39.230;9.122;2022-09-09T15:34:20;31.20;60.90
67598;DHT22;62026;39.230;9.122;2022-09-09T15:36:47;31.10;61.10
67598;DHT22;62026;39.230;9.122;2022-09-09T15:39:15;31.10;61.20
67598;DHT22;62026;39.230;9.122;2022-09-09T15:41:43;31.10;61.40
67598;DHT22;62026;39.230;9.122;2022-09-09T15:44:10;30.90;61.90
67598;DHT22;62026;39.230;9.122;2022-09-09T15:46:42;31.00;60.90
67598;DHT22;62026;39.230;9.122;2022-09-09T15:49:16;31.00;61.20
67598;DHT22;62026;39.230;9.122;2022-09-09T15:51:44;30.90;60.60
67598;DHT22;62026;39.230;9.122;2022-09-09T15:54:13;30.90;60.30
67598;DHT22;62026;39.230;9.122;2022-09-09T15:56:42;30.90;60.00
67598;DHT22;62026;39.230;9.122;2022-09-09T15:59:08;31.00;60.40
67598;DHT22;62026;39.230;9.122;2022-09-09T16:01:34;31.00;60.20
67598;DHT22;62026;39.230;9.122;2022-09-09T16:04:01;31.00;60.70
67598;DHT22;62026;39.230;9.122;2022-09-09T16:06:28;30.90;61.00
67598;DHT22;62026;39.230;9.122;2022-09-09T16:08:55;30.90;60.90
67598;DHT22;62026;39.230;9.122;2022-09-09T16:11:33;30.90;61.10
67598;DHT22;62026;39.230;9.122;2022-09-09T16:14:01;30.90;60.80
67598;DHT22;62026;39.230;9.122;2022-09-09T16:16:28;31.00;60.50
67598;DHT22;62026;39.230;9.122;2022-09-09T16:18:56;31.00;59.20
67598;DHT22;62026;39.230;9.122;2022-09-09T16:21:24;30.90;58.90
67598;DHT22;62026;39.230;9.122;2022-09-09T16:24:03;31.00;58.40
67598;DHT22;62026;39.230;9.122;2022-09-09T16:26:31;31.10;58.30
67598;DHT22;62026;39.230;9.122;2022-09-09T16:28:58;31.00;57.90
67598;DHT22;62026;39.230;9.122;2022-09-09T16:31:25;31.10;57.00
67598;DHT22;62026;39.230;9.122;2022-09-09T16:33:52;31.10;47.20
67598;DHT22;62026;39.230;9.122;2022-09-09T16:36:23;31.00;44.90
67598;DHT22;62026;39.230;9.122;2022-09-09T16:38:54;31.10;41.90
67598;DHT22;62026;39.230;9.122;2022-09-09T16:41:23;31.10;37.90
67598;DHT22;62026;39.230;9.122;2022-09-09T16:44:08;31.10;37.40
67598;DHT22;62026;39.230;9.122;2022-09-09T16:46:37;31.10;37.40
67598;DHT22;62026;39.230;9.122;2022-09-09T16:49:05;31.10;36.50
67598;DHT22;62026;39.230;9.122;2022-09-09T16:51:33;31.10;36.20
67598;DHT22;62026;39.230;9.122;2022-09-09T16:54:02;31.10;36.30
67598;DHT22;62026;39.230;9.122;2022-09-09T16:56:31;31.10;35.20
67598;DHT22;62026;39.230;9.122;2022-09-09T16:59:00;31.10;35.30
67598;DHT22;62026;39.230;9.122;2022-09-09T17:01:29;31.10;35.00
67598;DHT22;62026;39.230;9.122;2022-09-09T17:03:57;31.10;35.00
67598;DHT22;62026;39.230;9.122;2022-09-09T17:06:30;31.00;35.30
67598;DHT22;62026;39.230;9.122;2022-09-09T17:09:03;31.00;35.90
67598;DHT22;62026;39.230;9.122;2022-09-09T17:11:34;31.00;36.10
67598;DHT22;62026;39.230;9.122;2022-09-09T17:14:00;31.00;35.90
67598;DHT22;62026;39.230;9.122;2022-09-09T17:16:29;31.00;36.00
67598;DHT22;62026;39.230;9.122;2022-09-09T17:45:29;30.00;38.70
67598;DHT22;62026;39.230;9.122;2022-09-09T17:47:55;29.90;38.30
67598;DHT22;62026;39.230;9.122;2022-09-09T17:50:22;29.90;38.30
67598;DHT22;62026;39.230;9.122;2022-09-09T17:52:48;29.90;38.50
67598;DHT22;62026;39.230;9.122;2022-09-09T17:55:14;29.90;38.40
67598;DHT22;62026;39.230;9.122;2022-09-09T17:57:41;29.80;38.30
67598;DHT22;62026;39.230;9.122;2022-09-09T18:00:07;29.70;38.50
67598;DHT22;62026;39.230;9.122;2022-09-09T18:02:37;29.70;38.70
67598;DHT22;62026;39.230;9.122;2022-09-09T18:05:03;29.70;38.90
67598;DHT22;62026;39.230;9.122;2022-09-09T18:07:30;29.80;39.00
67598;DHT22;62026;39.230;9.122;2022-09-09T18:09:56;29.70;39.30
67598;DHT22;62026;39.230;9.122;2022-09-09T18:12:21;29.70;39.50
67598;DHT22;62026;39.230;9.122;2022-09-09T18:14:50;29.70;39.50
67598;DHT22;62026;39.230;9.122;2022-09-09T18:17:16;29.70;39.90
67598;DHT22;62026;39.230;9.122;2022-09-09T18:19:42;29.70;40.00
67598;DHT22;62026;39.230;9.122;2022-09-09T18:22:08;29.60;40.70
67598;DHT22;62026;39.230;9.122;2022-09-09T18:24:34;29.50;40.80
67598;DHT22;62026;39.230;9.122;2022-09-09T18:27:01;29.50;41.00
67598;DHT22;62026;39.230;9.122;2022-09-09T18:29:27;29.50;42.80